sensor_id;sensor_type;location;lat;lon;timestamp;P1;durP1;ratioP1;P2;durP2;ratioP2
35324;SDS011;35135;47.510;19.036;2023-01-29T00:00:30;13.55;;;11.98;;
35324;SDS011;35135;47.510;19.036;2023-01-29T00:02:56;13.25;;;11.77;;
35324;SDS011;35135;47.510;19.036;2023-01-29T00:05:21;13.95;;;11.27;;
35324;SDS011;35135;47.510;19.036;2023-01-29T00:07:47;12.90;;;11.60;;
35324;SDS011;35135;47.510;19.036;2023-01-29T00:10:13;13.68;;;12.27;;
35324;SDS011;35135;47.510;19.036;2023-01-29T00:12:39;12.93;;;11.63;;
35324;SDS011;35135;47.510;19.036;2023-01-29T00:15:04;13.38;;;11.98;;
35324;SDS011;35135;47.510;19.036;2023-01-29T00:17:30;14.32;;;12.82;;
35324;SDS011;35135;47.510;19.036;2023-01-29T00:19:56;12.18;;;10.88;;
35324;SDS011;35135;47.510;19.036;2023-01-29T00:22:22;12.73;;;11.43;;
35324;SDS011;35135;47.510;19.036;2023-01-29T00:24:48;14.82;;;11.73;;
35324;SDS011;35135;47.510;19.036;2023-01-29T00:27:13;12.60;;;11.30;;
35324;SDS011;35135;47.510;19.036;2023-01-29T00:29:39;14.35;;;11.30;;
35324;SDS011;35135;47.510;19.036;2023-01-29T00:32:05;12.95;;;11.55;;
35324;SDS011;35135;47.510;19.036;2023-01-29T00:34:31;13.00;;;11.68;;
35324;SDS011;35135;47.510;19.036;2023-01-29T00:36:56;12.82;;;11.30;;
35324;SDS011;35135;47.510;19.036;2023-01-29T00:39:29;12.20;;;10.90;;
35324;SDS011;35135;47.510;19.036;2023-01-29T00:42:03;13.63;;;12.27;;
35324;SDS011;35135;47.510;19.036;2023-01-29T00:44:48;13.18;;;11.68;;
35324;SDS011;35135;47.510;19.036;2023-01-29T00:47:22;13.48;;;11.40;;
35324;SDS011;35135;47.510;19.036;2023-01-29T00:49:58;13.05;;;11.73;;
35324;SDS011;35135;47.510;19.036;2023-01-29T00:52:24;14.93;;;11.95;;
35324;SDS011;35135;47.510;19.036;2023-01-29T00:54:51;12.65;;;11.20;;
35324;SDS011;35135;47.510;19.036;2023-01-29T00:57:22;13.15;;;11.80;;
35324;SDS011;35135;47.510;19.036;2023-01-29T00:59:49;12.80;;;11.43;;
35324;SDS011;35135;47.510;19.036;2023-01-29T01:02:15;13.13;;;11.68;;
35324;SDS011;35135;47.510;19.036;2023-01-29T01:04:59;13.18;;;11.05;;
35324;SDS011;35135;47.510;19.036;2023-01-29T01:07:27;12.75;;;11.35;;
35324;SDS011;35135;47.510;19.036;2023-01-29T01:09:54;11.95;;;10.75;;
35324;SDS011;35135;47.510;19.036;2023-01-29T01:12:38;12.25;;;11.05;;
35324;SDS011;35135;47.510;19.036;2023-01-29T01:15:04;13.25;;;11.85;;
35324;SDS011;35135;47.510;19.036;2023-01-29T01:17:30;13.60;;;11.63;;
35324;SDS011;35135;47.510;19.036;2023-01-29T01:19:55;12.25;;;11.05;;
35324;SDS011;35135;47.510;19.036;2023-01-29T01:22:21;12.77;;;11.48;;
35324;SDS011;35135;47.510;19.036;2023-01-29T01:24:46;13.02;;;10.75;;
35324;SDS011;35135;47.510;19.036;2023-01-29T01:27:12;12.05;;;10.85;;
35324;SDS011;35135;47.510;19.036;2023-01-29T01:29:38;12.90;;;11.60;;
35324;SDS011;35135;47.510;19.036;2023-01-29T01:32:04;13.40;;;11.57;;
35324;SDS011;35135;47.510;19.036;2023-01-29T01:34:30;12.45;;;11.15;;
35324;SDS011;35135;47.510;19.036;2023-01-29T01:36:56;13.90;;;11.30;;
35324;SDS011;35135;47.510;19.036;2023-01-29T01:39:22;13.18;;;11.88;;
35324;SDS011;35135;47.510;19.036;2023-01-29T01:41:48;12.95;;;11.55;;
35324;SDS011;35135;47.510;19.036;2023-01-29T01:50:08;13.02;;;11.35;;
35324;SDS011;35135;47.510;19.036;2023-01-29T01:52:42;13.13;;;11.73;;
35324;SDS011;35135;47.510;19.036;2023-01-29T01:55:11;12.55;;;11.27;;
35324;SDS011;35135;47.510;19.036;2023-01-29T01:57:40;11.60;;;10.40;;
35324;SDS011;35135;47.510;19.036;2023-01-29T02:00:10;12.55;;;10.82;;
35324;SDS011;35135;47.510;19.036;2023-01-29T02:02:40;11.93;;;10.73;;
35324;SDS011;35135;47.510;19.036;2023-01-29T02:05:27;12.48;;;11.02;;
35324;SDS011;35135;47.510;19.036;2023-01-29T02:08:13;12.32;;;11.02;;
35324;SDS011;35135;47.510;19.036;2023-01-29T02:10:59;12.55;;;11.25;;
35324;SDS011;35135;47.510;19.036;2023-01-29T02:13:25;12.07;;;10.82;;
35324;SDS011;35135;47.510;19.036;2023-01-29T02:15:51;12.32;;;11.13;;
35324;SDS011;35135;47.510;19.036;2023-01-29T02:18:18;11.57;;;10.48;;
35324;SDS011;35135;47.510;19.036;2023-01-29T02:20:52;12.60;;;11.30;;
35324;SDS011;35135;47.510;19.036;2023-01-29T02:25:58;12.13;;;10.90;;
35324;SDS011;35135;47.510;19.036;2023-01-29T02:32:32;11.98;;;10.73;;
35324;SDS011;35135;47.510;19.036;2023-01-29T02:37:38;11.80;;;10.63;;
35324;SDS011;35135;47.510;19.036;2023-01-29T02:40:57;11.60;;;10.32;;
35324;SDS011;35135;47.510;19.036;2023-01-29T02:43:07;12.32;;;11.07;;
35324;SDS011;35135;47.510;19.036;2023-01-29T02:45:47;12.55;;;11.25;;
35324;SDS011;35135;47.510;19.036;2023-01-29T02:48:18;12.35;;;11.15;;
35324;SDS011;35135;47.510;19.036;2023-01-29T02:50:48;12.63;;;11.32;;
35324;SDS011;35135;47.510;19.036;2023-01-29T02:53:40;13.10;;;11.77;;
35324;SDS011;35135;47.510;19.036;2023-01-29T02:56:27;12.15;;;10.95;;
35324;SDS011;35135;47.510;19.036;2023-01-29T02:59:03;13.40;;;11.82;;
35324;SDS011;35135;47.510;19.036;2023-01-29T03:01:34;11.43;;;10.30;;
35324;SDS011;35135;47.510;19.036;2023-01-29T03:04:14;11.80;;;10.60;;
35324;SDS011;35135;47.510;19.036;2023-01-29T03:06:46;12.07;;;10.88;;
35324;SDS011;35135;47.510;19.036;2023-01-29T03:09:18;11.52;;;10.43;;
35324;SDS011;35135;47.510;19.036;2023-01-29T03:12:03;11.27;;;10.18;;
35324;SDS011;35135;47.510;19.036;2023-01-29T03:14:42;13.00;;;11.70;;
35324;SDS011;35135;47.510;19.036;2023-01-29T03:17:32;11.60;;;10.40;;
35324;SDS011;35135;47.510;19.036;2023-01-29T03:20:03;12.40;;;11.18;;
35324;SDS011;35135;47.510;19.036;2023-01-29T03:22:33;13.10;;;11.32;;
35324;SDS011;35135;47.510;19.036;2023-01-29T03:25:00;12.43;;;10.68;;
35324;SDS011;35135;47.510;19.036;2023-01-29T03:27:48;11.02;;;9.88;;
35324;SDS011;35135;47.510;19.036;2023-01-29T03:30:40;12.43;;;11.13;;
35324;SDS011;35135;47.510;19.036;2023-01-29T03:33:31;12.40;;;11.05;;
35324;SDS011;35135;47.510;19.036;2023-01-29T03:36:28;12.32;;;11.05;;
35324;SDS011;35135;47.510;19.036;2023-01-29T03:39:11;11.30;;;10.18;;
35324;SDS011;35135;47.510;19.036;2023-01-29T03:41:47;13.07;;;11.13;;
35324;SDS011;35135;47.510;19.036;2023-01-29T03:57:59;11.65;;;10.45;;
35324;SDS011;35135;47.510;19.036;2023-01-29T04:00:51;11.82;;;10.63;;
35324;SDS011;35135;47.510;19.036;2023-01-29T04:08:37;12.15;;;10.82;;
35324;SDS011;35135;47.510;19.036;2023-01-29T04:11:11;11.95;;;10.70;;
35324;SDS011;35135;47.510;19.036;2023-01-29T04:13:40;12.82;;;10.70;;
35324;SDS011;35135;47.510;19.036;2023-01-29T04:16:09;12.35;;;11.13;;
35324;SDS011;35135;47.510;19.036;2023-01-29T04:18:43;11.15;;;10.02;;
35324;SDS011;35135;47.510;19.036;2023-01-29T04:21:09;11.45;;;10.27;;
35324;SDS011;35135;47.510;19.036;2023-01-29T04:23:35;10.98;;;9.88;;
35324;SDS011;35135;47.510;19.036;2023-01-29T04:29:09;12.02;;;10.57;;
35324;SDS011;35135;47.510;19.036;2023-01-29T04:31:56;10.65;;;9.55;;
35324;SDS011;35135;47.510;19.036;2023-01-29T04:39:58;10.52;;;9.52;;
35324;SDS011;35135;47.510;19.036;2023-01-29T04:42:39;10.88;;;9.77;;
35324;SDS011;35135;47.510;19.036;2023-01-29T04:48:07;10.82;;;9.73;;
35324;SDS011;35135;47.510;19.036;2023-01-29T04:50:37;11.48;;;10.38;;
35324;SDS011;35135;47.510;19.036;2023-01-29T04:53:16;10.98;;;9.88;;
35324;SDS011;35135;47.510;19.036;2023-01-29T04:55:56;9.93;;;8.93;;
35324;SDS011;35135;47.510;19.036;2023-01-29T04:58:25;10.60;;;9.50;;
35324;SDS011;35135;47.510;19.036;2023-01-29T05:01:24;10.73;;;9.60;;
35324;SDS011;35135;47.510;19.036;2023-01-29T05:03:53;10.90;;;9.80;;
35324;SDS011;35135;47.510;19.036;2023-01-29T05:06:21;10.85;;;9.70;;
35324;SDS011;35135;47.510;19.036;2023-01-29T05:08:49;10.77;;;9.68;;
35324;SDS011;35135;47.510;19.036;2023-01-29T05:11:16;9.15;;;8.25;;
35324;SDS011;35135;47.510;19.036;2023-01-29T05:13:43;10.10;;;9.00;;
35324;SDS011;35135;47.510;19.036;2023-01-29T05:16:19;9.80;;;8.80;;
35324;SDS011;35135;47.510;19.036;2023-01-29T05:18:54;10.50;;;9.40;;
35324;SDS011;35135;47.510;19.036;2023-01-29T05:21:20;9.98;;;8.68;;
35324;SDS011;35135;47.510;19.036;2023-01-29T05:24:04;9.63;;;8.57;;
35324;SDS011;35135;47.510;19.036;2023-01-29T05:26:41;9.20;;;8.30;;
35324;SDS011;35135;47.510;19.036;2023-01-29T05:29:26;9.32;;;8.40;;
35324;SDS011;35135;47.510;19.036;2023-01-29T05:31:52;9.05;;;8.15;;
35324;SDS011;35135;47.510;19.036;2023-01-29T05:34:18;9.13;;;8.23;;
35324;SDS011;35135;47.510;19.036;2023-01-29T05:36:43;8.77;;;7.88;;
35324;SDS011;35135;47.510;19.036;2023-01-29T05:39:09;8.13;;;7.32;;
35324;SDS011;35135;47.510;19.036;2023-01-29T05:41:35;9.25;;;8.35;;
35324;SDS011;35135;47.510;19.036;2023-01-29T05:44:00;8.35;;;7.47;;
35324;SDS011;35135;47.510;19.036;2023-01-29T05:46:26;9.38;;;8.30;;
35324;SDS011;35135;47.510;19.036;2023-01-29T05:48:52;8.48;;;7.68;;
35324;SDS011;35135;47.510;19.036;2023-01-29T05:51:19;10.45;;;8.52;;
35324;SDS011;35135;47.510;19.036;2023-01-29T05:53:44;9.00;;;8.10;;
35324;SDS011;35135;47.510;19.036;2023-01-29T05:56:10;8.60;;;7.70;;
35324;SDS011;35135;47.510;19.036;2023-01-29T05:58:36;9.40;;;8.40;;
35324;SDS011;35135;47.510;19.036;2023-01-29T06:01:11;8.70;;;7.80;;
35324;SDS011;35135;47.510;19.036;2023-01-29T06:03:39;8.63;;;7.82;;
35324;SDS011;35135;47.510;19.036;2023-01-29T06:06:04;9.95;;;8.38;;
35324;SDS011;35135;47.510;19.036;2023-01-29T06:08:30;9.40;;;8.40;;
35324;SDS011;35135;47.510;19.036;2023-01-29T06:10:56;8.88;;;7.95;;
35324;SDS011;35135;47.510;19.036;2023-01-29T06:13:22;9.32;;;8.18;;
35324;SDS011;35135;47.510;19.036;2023-01-29T06:15:47;9.18;;;8.27;;
35324;SDS011;35135;47.510;19.036;2023-01-29T06:18:13;8.43;;;7.63;;
35324;SDS011;35135;47.510;19.036;2023-01-29T06:20:39;8.77;;;7.88;;
35324;SDS011;35135;47.510;19.036;2023-01-29T06:23:04;8.27;;;7.45;;
35324;SDS011;35135;47.510;19.036;2023-01-29T06:25:30;9.50;;;8.30;;
35324;SDS011;35135;47.510;19.036;2023-01-29T06:27:56;8.82;;;7.80;;
35324;SDS011;35135;47.510;19.036;2023-01-29T06:30:21;8.60;;;7.70;;
35324;SDS011;35135;47.510;19.036;2023-01-29T06:32:47;7.95;;;7.13;;
35324;SDS011;35135;47.510;19.036;2023-01-29T06:35:13;7.57;;;6.88;;
35324;SDS011;35135;47.510;19.036;2023-01-29T06:37:38;8.30;;;7.50;;
35324;SDS011;35135;47.510;19.036;2023-01-29T06:40:04;8.60;;;7.70;;
35324;SDS011;35135;47.510;19.036;2023-01-29T06:42:31;8.23;;;7.38;;
35324;SDS011;35135;47.510;19.036;2023-01-29T06:44:58;8.05;;;7.25;;
35324;SDS011;35135;47.510;19.036;2023-01-29T06:47:25;8.90;;;7.85;;
35324;SDS011;35135;47.510;19.036;2023-01-29T06:49:51;9.45;;;7.63;;
35324;SDS011;35135;47.510;19.036;2023-01-29T06:52:17;8.88;;;7.97;;
35324;SDS011;35135;47.510;19.036;2023-01-29T06:54:43;8.43;;;7.53;;
35324;SDS011;35135;47.510;19.036;2023-01-29T06:57:08;8.68;;;7.82;;
35324;SDS011;35135;47.510;19.036;2023-01-29T06:59:34;8.50;;;7.60;;
35324;SDS011;35135;47.510;19.036;2023-01-29T07:02:00;9.10;;;7.78;;
35324;SDS011;35135;47.510;19.036;2023-01-29T07:04:27;8.10;;;7.28;;
35324;SDS011;35135;47.510;19.036;2023-01-29T07:06:52;8.30;;;7.43;;
35324;SDS011;35135;47.510;19.036;2023-01-29T07:09:18;8.02;;;7.22;;
35324;SDS011;35135;47.510;19.036;2023-01-29T07:11:43;8.40;;;7.60;;
35324;SDS011;35135;47.510;19.036;2023-01-29T07:14:09;8.38;;;7.47;;
35324;SDS011;35135;47.510;19.036;2023-01-29T07:16:35;8.88;;;7.97;;
35324;SDS011;35135;47.510;19.036;2023-01-29T07:19:00;8.02;;;7.22;;
35324;SDS011;35135;47.510;19.036;2023-01-29T07:21:26;8.60;;;7.53;;
35324;SDS011;35135;47.510;19.036;2023-01-29T07:23:52;8.60;;;7.70;;
35324;SDS011;35135;47.510;19.036;2023-01-29T07:26:17;8.95;;;7.10;;
35324;SDS011;35135;47.510;19.036;2023-01-29T07:28:43;8.10;;;7.30;;
35324;SDS011;35135;47.510;19.036;2023-01-29T07:31:10;7.90;;;7.10;;
35324;SDS011;35135;47.510;19.036;2023-01-29T07:33:37;8.70;;;7.15;;
35324;SDS011;35135;47.510;19.036;2023-01-29T07:36:06;7.65;;;6.90;;
35324;SDS011;35135;47.510;19.036;2023-01-29T07:38:33;9.23;;;6.80;;
35324;SDS011;35135;47.510;19.036;2023-01-29T07:40:58;8.15;;;7.25;;
35324;SDS011;35135;47.510;19.036;2023-01-29T07:43:24;7.63;;;6.78;;
35324;SDS011;35135;47.510;19.036;2023-01-29T07:45:50;7.20;;;6.50;;
35324;SDS011;35135;47.510;19.036;2023-01-29T07:48:16;8.10;;;6.78;;
35324;SDS011;35135;47.510;19.036;2023-01-29T07:50:41;7.10;;;6.35;;
35324;SDS011;35135;47.510;19.036;2023-01-29T07:53:11;8.75;;;6.70;;
35324;SDS011;35135;47.510;19.036;2023-01-29T07:55:42;7.15;;;6.28;;
35324;SDS011;35135;47.510;19.036;2023-01-29T07:58:09;8.32;;;6.78;;
35324;SDS011;35135;47.510;19.036;2023-01-29T08:00:35;14.77;;;6.45;;
35324;SDS011;35135;47.510;19.036;2023-01-29T08:03:04;7.15;;;6.40;;
35324;SDS011;35135;47.510;19.036;2023-01-29T08:05:32;7.13;;;6.13;;
35324;SDS011;35135;47.510;19.036;2023-01-29T08:07:58;8.07;;;5.88;;
35324;SDS011;35135;47.510;19.036;2023-01-29T08:10:24;8.88;;;5.85;;
35324;SDS011;35135;47.510;19.036;2023-01-29T08:12:57;7.00;;;6.07;;
35324;SDS011;35135;47.510;19.036;2023-01-29T08:15:24;7.53;;;6.25;;
35324;SDS011;35135;47.510;19.036;2023-01-29T08:17:50;10.30;;;6.85;;
35324;SDS011;35135;47.510;19.036;2023-01-29T08:20:16;7.93;;;6.07;;
35324;SDS011;35135;47.510;19.036;2023-01-29T08:22:42;8.50;;;5.72;;
35324;SDS011;35135;47.510;19.036;2023-01-29T08:25:09;7.32;;;5.90;;
35324;SDS011;35135;47.510;19.036;2023-01-29T08:27:35;6.55;;;5.55;;
35324;SDS011;35135;47.510;19.036;2023-01-29T08:30:01;7.18;;;5.63;;
35324;SDS011;35135;47.510;19.036;2023-01-29T08:32:28;8.43;;;6.13;;
35324;SDS011;35135;47.510;19.036;2023-01-29T08:34:53;10.27;;;6.18;;
35324;SDS011;35135;47.510;19.036;2023-01-29T08:37:19;10.60;;;5.43;;
35324;SDS011;35135;47.510;19.036;2023-01-29T08:39:44;7.32;;;5.97;;
35324;SDS011;35135;47.510;19.036;2023-01-29T08:42:10;6.95;;;5.57;;
35324;SDS011;35135;47.510;19.036;2023-01-29T08:44:36;8.13;;;5.90;;
35324;SDS011;35135;47.510;19.036;2023-01-29T08:47:01;7.30;;;6.28;;
35324;SDS011;35135;47.510;19.036;2023-01-29T08:49:27;8.50;;;5.78;;
35324;SDS011;35135;47.510;19.036;2023-01-29T08:51:53;6.70;;;5.75;;
35324;SDS011;35135;47.510;19.036;2023-01-29T08:54:21;7.50;;;5.63;;
35324;SDS011;35135;47.510;19.036;2023-01-29T08:56:47;7.05;;;5.40;;
35324;SDS011;35135;47.510;19.036;2023-01-29T08:59:12;7.03;;;5.32;;
35324;SDS011;35135;47.510;19.036;2023-01-29T09:01:38;9.15;;;6.10;;
35324;SDS011;35135;47.510;19.036;2023-01-29T09:04:04;9.20;;;5.72;;
35324;SDS011;35135;47.510;19.036;2023-01-29T09:06:30;7.60;;;5.60;;
35324;SDS011;35135;47.510;19.036;2023-01-29T09:08:55;8.60;;;5.05;;
35324;SDS011;35135;47.510;19.036;2023-01-29T09:11:21;8.95;;;5.88;;
35324;SDS011;35135;47.510;19.036;2023-01-29T09:13:47;11.07;;;6.97;;
35324;SDS011;35135;47.510;19.036;2023-01-29T09:16:12;9.50;;;6.22;;
35324;SDS011;35135;47.510;19.036;2023-01-29T09:18:38;7.55;;;6.10;;
35324;SDS011;35135;47.510;19.036;2023-01-29T09:21:04;7.03;;;5.78;;
35324;SDS011;35135;47.510;19.036;2023-01-29T09:23:30;9.15;;;6.18;;
35324;SDS011;35135;47.510;19.036;2023-01-29T09:25:56;7.43;;;5.68;;
35324;SDS011;35135;47.510;19.036;2023-01-29T09:28:22;12.82;;;6.93;;
35324;SDS011;35135;47.510;19.036;2023-01-29T09:30:47;9.27;;;6.03;;
35324;SDS011;35135;47.510;19.036;2023-01-29T09:33:13;6.43;;;5.60;;
35324;SDS011;35135;47.510;19.036;2023-01-29T09:35:42;8.13;;;5.25;;
35324;SDS011;35135;47.510;19.036;2023-01-29T09:38:09;7.45;;;5.60;;
35324;SDS011;35135;47.510;19.036;2023-01-29T09:51:49;7.97;;;5.82;;
35324;SDS011;35135;47.510;19.036;2023-01-29T09:57:24;8.65;;;5.57;;
35324;SDS011;35135;47.510;19.036;2023-01-29T10:00:23;6.50;;;5.20;;
35324;SDS011;35135;47.510;19.036;2023-01-29T10:08:56;11.95;;;5.90;;
35324;SDS011;35135;47.510;19.036;2023-01-29T10:11:19;8.77;;;5.82;;
35324;SDS011;35135;47.510;19.036;2023-01-29T10:19:49;9.43;;;6.80;;
35324;SDS011;35135;47.510;19.036;2023-01-29T10:22:44;10.43;;;6.18;;
35324;SDS011;35135;47.510;19.036;2023-01-29T10:25:28;10.45;;;6.35;;
35324;SDS011;35135;47.510;19.036;2023-01-29T10:27:57;8.85;;;6.45;;
35324;SDS011;35135;47.510;19.036;2023-01-29T10:32:57;11.67;;;7.30;;
35324;SDS011;35135;47.510;19.036;2023-01-29T10:35:28;13.13;;;7.03;;
35324;SDS011;35135;47.510;19.036;2023-01-29T10:37:55;13.43;;;7.28;;
35324;SDS011;35135;47.510;19.036;2023-01-29T10:40:28;10.00;;;6.18;;
35324;SDS011;35135;47.510;19.036;2023-01-29T10:43:08;11.73;;;6.20;;
35324;SDS011;35135;47.510;19.036;2023-01-29T10:48:39;13.32;;;6.97;;
35324;SDS011;35135;47.510;19.036;2023-01-29T10:56:55;10.13;;;6.40;;
35324;SDS011;35135;47.510;19.036;2023-01-29T10:59:42;9.55;;;6.40;;
35324;SDS011;35135;47.510;19.036;2023-01-29T11:02:17;10.30;;;6.28;;
35324;SDS011;35135;47.510;19.036;2023-01-29T11:04:46;9.25;;;6.50;;
35324;SDS011;35135;47.510;19.036;2023-01-29T11:07:12;9.20;;;5.72;;
35324;SDS011;35135;47.510;19.036;2023-01-29T11:12:24;10.18;;;6.30;;
35324;SDS011;35135;47.510;19.036;2023-01-29T11:20:28;9.43;;;5.90;;
35324;SDS011;35135;47.510;19.036;2023-01-29T11:22:54;10.45;;;6.15;;
35324;SDS011;35135;47.510;19.036;2023-01-29T11:25:21;9.65;;;5.78;;
35324;SDS011;35135;47.510;19.036;2023-01-29T11:27:48;8.43;;;5.78;;
35324;SDS011;35135;47.510;19.036;2023-01-29T11:30:26;8.38;;;5.40;;
35324;SDS011;35135;47.510;19.036;2023-01-29T11:35:29;7.93;;;6.07;;
35324;SDS011;35135;47.510;19.036;2023-01-29T11:38:07;11.32;;;6.00;;
35324;SDS011;35135;47.510;19.036;2023-01-29T11:40:47;8.45;;;5.72;;
35324;SDS011;35135;47.510;19.036;2023-01-29T11:43:21;9.90;;;5.95;;
35324;SDS011;35135;47.510;19.036;2023-01-29T11:45:52;7.93;;;5.68;;
35324;SDS011;35135;47.510;19.036;2023-01-29T11:48:38;7.75;;;5.07;;
35324;SDS011;35135;47.510;19.036;2023-01-29T11:51:10;9.38;;;5.28;;
35324;SDS011;35135;47.510;19.036;2023-01-29T11:53:48;8.57;;;5.53;;
35324;SDS011;35135;47.510;19.036;2023-01-29T11:58:53;7.57;;;5.35;;
35324;SDS011;35135;47.510;19.036;2023-01-29T12:01:32;7.93;;;5.40;;
35324;SDS011;35135;47.510;19.036;2023-01-29T12:04:14;7.53;;;5.28;;
35324;SDS011;35135;47.510;19.036;2023-01-29T12:06:44;7.13;;;5.05;;
35324;SDS011;35135;47.510;19.036;2023-01-29T12:09:15;7.05;;;5.32;;
35324;SDS011;35135;47.510;19.036;2023-01-29T12:11:43;9.02;;;5.03;;
35324;SDS011;35135;47.510;19.036;2023-01-29T12:16:58;7.72;;;4.93;;
35324;SDS011;35135;47.510;19.036;2023-01-29T12:19:41;7.15;;;5.45;;
35324;SDS011;35135;47.510;19.036;2023-01-29T12:25:06;6.32;;;4.63;;
35324;SDS011;35135;47.510;19.036;2023-01-29T12:27:55;6.70;;;5.05;;
35324;SDS011;35135;47.510;19.036;2023-01-29T12:30:47;6.50;;;4.53;;
35324;SDS011;35135;47.510;19.036;2023-01-29T12:36:20;5.93;;;4.40;;
35324;SDS011;35135;47.510;19.036;2023-01-29T12:38:47;6.38;;;4.50;;
35324;SDS011;35135;47.510;19.036;2023-01-29T12:41:20;5.40;;;4.53;;
35324;SDS011;35135;47.510;19.036;2023-01-29T12:44:01;7.75;;;4.70;;
35324;SDS011;35135;47.510;19.036;2023-01-29T12:46:40;6.75;;;4.80;;
35324;SDS011;35135;47.510;19.036;2023-01-29T12:49:11;5.90;;;4.68;;
35324;SDS011;35135;47.510;19.036;2023-01-29T12:51:51;6.20;;;4.70;;
35324;SDS011;35135;47.510;19.036;2023-01-29T12:57:22;6.47;;;4.53;;
35324;SDS011;35135;47.510;19.036;2023-01-29T12:59:56;5.78;;;4.78;;
35324;SDS011;35135;47.510;19.036;2023-01-29T13:02:29;6.85;;;4.78;;
35324;SDS011;35135;47.510;19.036;2023-01-29T13:04:58;5.15;;;4.00;;
35324;SDS011;35135;47.510;19.036;2023-01-29T13:07:32;5.80;;;4.15;;
35324;SDS011;35135;47.510;19.036;2023-01-29T13:12:44;6.20;;;4.57;;
35324;SDS011;35135;47.510;19.036;2023-01-29T13:15:21;9.27;;;4.57;;
35324;SDS011;35135;47.510;19.036;2023-01-29T13:18:13;9.50;;;4.45;;
35324;SDS011;35135;47.510;19.036;2023-01-29T13:20:42;8.80;;;4.35;;
35324;SDS011;35135;47.510;19.036;2023-01-29T13:23:19;12.25;;;4.47;;
35324;SDS011;35135;47.510;19.036;2023-01-29T13:25:50;7.78;;;4.43;;
35324;SDS011;35135;47.510;19.036;2023-01-29T13:28:17;25.15;;;5.40;;
35324;SDS011;35135;47.510;19.036;2023-01-29T13:30:46;9.10;;;4.47;;
35324;SDS011;35135;47.510;19.036;2023-01-29T13:33:36;9.63;;;4.60;;
35324;SDS011;35135;47.510;19.036;2023-01-29T13:36:04;14.05;;;5.28;;
35324;SDS011;35135;47.510;19.036;2023-01-29T13:38:40;9.73;;;4.40;;
35324;SDS011;35135;47.510;19.036;2023-01-29T13:41:09;16.05;;;4.75;;
35324;SDS011;35135;47.510;19.036;2023-01-29T13:43:39;9.50;;;4.13;;
35324;SDS011;35135;47.510;19.036;2023-01-29T13:46:08;6.93;;;4.32;;
35324;SDS011;35135;47.510;19.036;2023-01-29T13:48:42;9.40;;;4.35;;
35324;SDS011;35135;47.510;19.036;2023-01-29T13:51:14;7.15;;;4.43;;
35324;SDS011;35135;47.510;19.036;2023-01-29T13:54:19;7.45;;;4.18;;
35324;SDS011;35135;47.510;19.036;2023-01-29T13:56:43;5.35;;;4.03;;
35324;SDS011;35135;47.510;19.036;2023-01-29T13:59:21;10.10;;;3.45;;
35324;SDS011;35135;47.510;19.036;2023-01-29T14:02:17;7.13;;;4.20;;
35324;SDS011;35135;47.510;19.036;2023-01-29T14:04:46;6.88;;;4.03;;
35324;SDS011;35135;47.510;19.036;2023-01-29T14:07:46;11.02;;;4.45;;
35324;SDS011;35135;47.510;19.036;2023-01-29T14:10:20;9.32;;;4.72;;
35324;SDS011;35135;47.510;19.036;2023-01-29T14:13:23;5.07;;;3.40;;
35324;SDS011;35135;47.510;19.036;2023-01-29T14:15:41;11.23;;;3.75;;
35324;SDS011;35135;47.510;19.036;2023-01-29T14:18:27;10.68;;;4.03;;
35324;SDS011;35135;47.510;19.036;2023-01-29T14:23:44;10.35;;;3.60;;
35324;SDS011;35135;47.510;19.036;2023-01-29T14:26:21;7.10;;;4.20;;
35324;SDS011;35135;47.510;19.036;2023-01-29T14:29:06;9.52;;;3.75;;
35324;SDS011;35135;47.510;19.036;2023-01-29T14:31:53;11.65;;;3.95;;
35324;SDS011;35135;47.510;19.036;2023-01-29T14:34:24;11.55;;;4.32;;
35324;SDS011;35135;47.510;19.036;2023-01-29T14:36:57;5.78;;;3.47;;
35324;SDS011;35135;47.510;19.036;2023-01-29T14:42:23;8.52;;;3.20;;
35324;SDS011;35135;47.510;19.036;2023-01-29T14:50:00;7.65;;;3.53;;
35324;SDS011;35135;47.510;19.036;2023-01-29T14:52:37;10.13;;;3.55;;
35324;SDS011;35135;47.510;19.036;2023-01-29T14:55:06;7.82;;;3.78;;
35324;SDS011;35135;47.510;19.036;2023-01-29T14:57:39;8.15;;;3.92;;
35324;SDS011;35135;47.510;19.036;2023-01-29T15:00:14;7.97;;;3.72;;
35324;SDS011;35135;47.510;19.036;2023-01-29T15:02:46;8.60;;;3.17;;
35324;SDS011;35135;47.510;19.036;2023-01-29T15:05:16;6.88;;;3.55;;
35324;SDS011;35135;47.510;19.036;2023-01-29T15:07:55;11.90;;;3.78;;
35324;SDS011;35135;47.510;19.036;2023-01-29T15:10:33;10.68;;;3.95;;
35324;SDS011;35135;47.510;19.036;2023-01-29T15:15:48;8.82;;;4.00;;
35324;SDS011;35135;47.510;19.036;2023-01-29T15:18:19;8.10;;;3.55;;
35324;SDS011;35135;47.510;19.036;2023-01-29T15:21:02;8.63;;;4.13;;
35324;SDS011;35135;47.510;19.036;2023-01-29T15:23:35;6.75;;;3.40;;
35324;SDS011;35135;47.510;19.036;2023-01-29T15:26:04;5.90;;;3.60;;
35324;SDS011;35135;47.510;19.036;2023-01-29T15:28:32;8.07;;;3.95;;
35324;SDS011;35135;47.510;19.036;2023-01-29T15:31:00;7.25;;;4.05;;
35324;SDS011;35135;47.510;19.036;2023-01-29T15:33:28;7.68;;;3.88;;
35324;SDS011;35135;47.510;19.036;2023-01-29T15:36:02;14.48;;;5.28;;
35324;SDS011;35135;47.510;19.036;2023-01-29T15:38:29;9.32;;;4.32;;
35324;SDS011;35135;47.510;19.036;2023-01-29T15:40:55;9.73;;;5.28;;
35324;SDS011;35135;47.510;19.036;2023-01-29T15:45:51;14.35;;;5.70;;
35324;SDS011;35135;47.510;19.036;2023-01-29T15:48:19;10.80;;;5.47;;
35324;SDS011;35135;47.510;19.036;2023-01-29T15:50:49;11.63;;;5.95;;
35324;SDS011;35135;47.510;19.036;2023-01-29T15:53:19;15.25;;;5.93;;
35324;SDS011;35135;47.510;19.036;2023-01-29T15:55:48;14.65;;;6.25;;
35324;SDS011;35135;47.510;19.036;2023-01-29T15:58:20;10.40;;;5.35;;
35324;SDS011;35135;47.510;19.036;2023-01-29T16:00:53;11.65;;;5.57;;
35324;SDS011;35135;47.510;19.036;2023-01-29T16:03:21;15.88;;;6.53;;
35324;SDS011;35135;47.510;19.036;2023-01-29T16:05:48;18.38;;;5.85;;
35324;SDS011;35135;47.510;19.036;2023-01-29T16:08:15;14.88;;;5.97;;
35324;SDS011;35135;47.510;19.036;2023-01-29T16:10:42;11.32;;;5.75;;
35324;SDS011;35135;47.510;19.036;2023-01-29T16:13:18;9.98;;;5.55;;
35324;SDS011;35135;47.510;19.036;2023-01-29T16:15:59;12.43;;;5.95;;
35324;SDS011;35135;47.510;19.036;2023-01-29T16:18:32;14.10;;;5.43;;
35324;SDS011;35135;47.510;19.036;2023-01-29T16:21:09;15.55;;;5.25;;
35324;SDS011;35135;47.510;19.036;2023-01-29T16:23:40;18.63;;;5.90;;
35324;SDS011;35135;47.510;19.036;2023-01-29T16:26:14;15.20;;;5.13;;
35324;SDS011;35135;47.510;19.036;2023-01-29T16:28:46;11.77;;;5.22;;
35324;SDS011;35135;47.510;19.036;2023-01-29T16:31:12;18.30;;;5.53;;
35324;SDS011;35135;47.510;19.036;2023-01-29T16:33:51;12.45;;;4.40;;
35324;SDS011;35135;47.510;19.036;2023-01-29T16:36:20;17.27;;;5.82;;
35324;SDS011;35135;47.510;19.036;2023-01-29T16:38:49;11.45;;;5.65;;
35324;SDS011;35135;47.510;19.036;2023-01-29T16:41:32;16.00;;;5.80;;
35324;SDS011;35135;47.510;19.036;2023-01-29T16:46:44;12.45;;;5.00;;
35324;SDS011;35135;47.510;19.036;2023-01-29T16:51:54;9.05;;;4.50;;
35324;SDS011;35135;47.510;19.036;2023-01-29T16:54:24;15.80;;;5.30;;
35324;SDS011;35135;47.510;19.036;2023-01-29T16:56:52;7.53;;;4.45;;
35324;SDS011;35135;47.510;19.036;2023-01-29T16:59:32;10.17;;;4.13;;
35324;SDS011;35135;47.510;19.036;2023-01-29T17:02:01;8.98;;;4.32;;